sensor_id;sensor_type;location;lat;lon;timestamp;temperature;humidity
35127;DHT22;21300;52.006;5.798;2023-11-19T00:02:21;12.20;99.90
35127;DHT22;21300;52.006;5.798;2023-11-19T00:04:47;12.20;99.90
35127;DHT22;21300;52.006;5.798;2023-11-19T00:07:13;12.20;99.90
35127;DHT22;21300;52.006;5.798;2023-11-19T00:09:39;12.20;99.90
35127;DHT22;21300;52.006;5.798;2023-11-19T00:12:06;12.20;99.90
35127;DHT22;21300;52.006;5.798;2023-11-19T00:14:32;12.20;99.90
35127;DHT22;21300;52.006;5.798;2023-11-19T00:16:58;12.30;99.90
35127;DHT22;21300;52.006;5.798;2023-11-19T00:19:23;12.30;99.90
35127;DHT22;21300;52.006;5.798;2023-11-19T00:21:49;12.30;99.90
35127;DHT22;21300;52.006;5.798;2023-11-19T00:24:14;12.30;99.90
35127;DHT22;21300;52.006;5.798;2023-11-19T00:26:43;12.30;99.90
35127;DHT22;21300;52.006;5.798;2023-11-19T00:29:09;12.40;99.90
35127;DHT22;21300;52.006;5.798;2023-11-19T00:31:35;12.30;99.90
35127;DHT22;21300;52.006;5.798;2023-11-19T00:34:00;12.30;99.90
35127;DHT22;21300;52.006;5.798;2023-11-19T00:36:27;12.30;99.90
35127;DHT22;21300;52.006;5.798;2023-11-19T00:38:53;12.40;99.90
35127;DHT22;21300;52.006;5.798;2023-11-19T00:41:19;12.40;99.90
35127;DHT22;21300;52.006;5.798;2023-11-19T00:43:45;12.40;99.90
35127;DHT22;21300;52.006;5.798;2023-11-19T00:46:10;12.40;99.90
35127;DHT22;21300;52.006;5.798;2023-11-19T00:48:36;12.40;99.90
35127;DHT22;21300;52.006;5.798;2023-11-19T00:51:02;12.40;99.90
35127;DHT22;21300;52.006;5.798;2023-11-19T00:53:29;12.40;99.90
35127;DHT22;21300;52.006;5.798;2023-11-19T00:55:55;12.40;99.90
35127;DHT22;21300;52.006;5.798;2023-11-19T00:58:21;12.40;99.90
35127;DHT22;21300;52.006;5.798;2023-11-19T01:00:46;12.40;99.90
35127;DHT22;21300;52.006;5.798;2023-11-19T01:03:12;12.50;99.90
35127;DHT22;21300;52.006;5.798;2023-11-19T01:05:38;12.40;99.90
35127;DHT22;21300;52.006;5.798;2023-11-19T01:08:04;12.50;99.90
35127;DHT22;21300;52.006;5.798;2023-11-19T01:10:30;12.50;99.90
35127;DHT22;21300;52.006;5.798;2023-11-19T01:12:56;12.50;99.90
35127;DHT22;21300;52.006;5.798;2023-11-19T01:15:22;12.50;99.90
35127;DHT22;21300;52.006;5.798;2023-11-19T01:17:48;12.50;99.90
35127;DHT22;21300;52.006;5.798;2023-11-19T01:20:14;12.40;99.90
35127;DHT22;21300;52.006;5.798;2023-11-19T01:22:43;12.40;99.90
35127;DHT22;21300;52.006;5.798;2023-11-19T01:25:09;12.50;99.90
35127;DHT22;21300;52.006;5.798;2023-11-19T01:27:37;12.50;99.90
35127;DHT22;21300;52.006;5.798;2023-11-19T01:30:04;12.50;99.90
35127;DHT22;21300;52.006;5.798;2023-11-19T01:32:31;12.50;99.90
35127;DHT22;21300;52.006;5.798;2023-11-19T01:34:56;12.50;99.90
35127;DHT22;21300;52.006;5.798;2023-11-19T01:37:22;12.50;99.90
35127;DHT22;21300;52.006;5.798;2023-11-19T01:39:47;12.50;99.90
35127;DHT22;21300;52.006;5.798;2023-11-19T01:42:13;12.50;99.90
35127;DHT22;21300;52.006;5.798;2023-11-19T01:44:39;12.50;99.90
35127;DHT22;21300;52.006;5.798;2023-11-19T01:47:04;12.50;99.90
35127;DHT22;21300;52.006;5.798;2023-11-19T01:49:32;12.50;99.90
35127;DHT22;21300;52.006;5.798;2023-11-19T01:51:58;12.40;99.90
35127;DHT22;21300;52.006;5.798;2023-11-19T01:54:25;12.40;99.90
35127;DHT22;21300;52.006;5.798;2023-11-19T01:56:52;12.40;99.90
35127;DHT22;21300;52.006;5.798;2023-11-19T01:59:19;12.50;99.90
35127;DHT22;21300;52.006;5.798;2023-11-19T02:01:52;12.40;99.90
35127;DHT22;21300;52.006;5.798;2023-11-19T02:04:18;12.40;99.90
35127;DHT22;21300;52.006;5.798;2023-11-19T02:06:45;12.40;99.90
35127;DHT22;21300;52.006;5.798;2023-11-19T02:09:12;12.40;99.90
35127;DHT22;21300;52.006;5.798;2023-11-19T02:11:40;12.40;99.90
35127;DHT22;21300;52.006;5.798;2023-11-19T02:14:06;12.30;99.90
35127;DHT22;21300;52.006;5.798;2023-11-19T02:16:32;12.40;99.90
35127;DHT22;21300;52.006;5.798;2023-11-19T02:18:57;12.30;99.90
35127;DHT22;21300;52.006;5.798;2023-11-19T02:21:23;12.40;99.90
35127;DHT22;21300;52.006;5.798;2023-11-19T02:23:49;12.40;99.90
35127;DHT22;21300;52.006;5.798;2023-11-19T02:28:58;12.40;99.90
35127;DHT22;21300;52.006;5.798;2023-11-19T02:31:24;12.40;99.90
35127;DHT22;21300;52.006;5.798;2023-11-19T02:33:49;12.30;99.90
35127;DHT22;21300;52.006;5.798;2023-11-19T02:36:15;12.30;99.90
35127;DHT22;21300;52.006;5.798;2023-11-19T02:38:42;12.30;99.90
35127;DHT22;21300;52.006;5.798;2023-11-19T02:41:08;12.30;99.90
35127;DHT22;21300;52.006;5.798;2023-11-19T02:43:35;12.20;99.90
35127;DHT22;21300;52.006;5.798;2023-11-19T02:46:03;12.30;99.90
35127;DHT22;21300;52.006;5.798;2023-11-19T02:48:32;12.20;99.90
35127;DHT22;21300;52.006;5.798;2023-11-19T02:50:58;12.20;99.90
35127;DHT22;21300;52.006;5.798;2023-11-19T02:53:24;12.20;99.90
35127;DHT22;21300;52.006;5.798;2023-11-19T02:55:52;12.20;99.90
35127;DHT22;21300;52.006;5.798;2023-11-19T02:58:18;12.10;99.90
35127;DHT22;21300;52.006;5.798;2023-11-19T03:00:49;12.20;99.90
35127;DHT22;21300;52.006;5.798;2023-11-19T03:03:26;12.10;99.90
35127;DHT22;21300;52.006;5.798;2023-11-19T03:06:04;12.10;99.90
35127;DHT22;21300;52.006;5.798;2023-11-19T03:08:30;12.10;99.90
35127;DHT22;21300;52.006;5.798;2023-11-19T03:10:55;12.10;99.90
35127;DHT22;21300;52.006;5.798;2023-11-19T03:13:21;12.10;99.90
35127;DHT22;21300;52.006;5.798;2023-11-19T03:15:47;12.10;99.90
35127;DHT22;21300;52.006;5.798;2023-11-19T03:18:13;12.00;99.90
35127;DHT22;21300;52.006;5.798;2023-11-19T03:20:39;12.00;99.90
35127;DHT22;21300;52.006;5.798;2023-11-19T03:23:04;12.00;99.90
35127;DHT22;21300;52.006;5.798;2023-11-19T03:25:31;12.00;99.90
35127;DHT22;21300;52.006;5.798;2023-11-19T03:28:02;11.90;99.90
35127;DHT22;21300;52.006;5.798;2023-11-19T03:30:29;11.90;99.90
35127;DHT22;21300;52.006;5.798;2023-11-19T03:32:55;11.80;99.90
35127;DHT22;21300;52.006;5.798;2023-11-19T03:35:22;11.80;99.90
35127;DHT22;21300;52.006;5.798;2023-11-19T03:37:47;11.80;99.90
35127;DHT22;21300;52.006;5.798;2023-11-19T03:40:13;11.70;99.90
35127;DHT22;21300;52.006;5.798;2023-11-19T03:42:40;11.70;99.90
35127;DHT22;21300;52.006;5.798;2023-11-19T03:45:07;11.60;99.90
35127;DHT22;21300;52.006;5.798;2023-11-19T03:47:35;11.60;99.90
35127;DHT22;21300;52.006;5.798;2023-11-19T03:50:01;11.50;99.90
35127;DHT22;21300;52.006;5.798;2023-11-19T03:52:28;11.50;99.90
35127;DHT22;21300;52.006;5.798;2023-11-19T03:54:55;11.40;99.90
35127;DHT22;21300;52.006;5.798;2023-11-19T03:57:21;11.40;99.90
35127;DHT22;21300;52.006;5.798;2023-11-19T03:59:47;11.40;99.90
35127;DHT22;21300;52.006;5.798;2023-11-19T04:02:13;11.30;99.90
35127;DHT22;21300;52.006;5.798;2023-11-19T04:04:39;11.20;99.90
35127;DHT22;21300;52.006;5.798;2023-11-19T04:07:05;11.20;99.90
35127;DHT22;21300;52.006;5.798;2023-11-19T04:09:31;11.10;99.90
35127;DHT22;21300;52.006;5.798;2023-11-19T04:11:59;11.10;99.90
35127;DHT22;21300;52.006;5.798;2023-11-19T04:14:24;11.10;99.90
35127;DHT22;21300;52.006;5.798;2023-11-19T04:16:50;11.10;99.90
35127;DHT22;21300;52.006;5.798;2023-11-19T04:19:16;11.10;99.90
35127;DHT22;21300;52.006;5.798;2023-11-19T04:21:42;11.10;99.90
35127;DHT22;21300;52.006;5.798;2023-11-19T04:24:11;11.10;99.90
35127;DHT22;21300;52.006;5.798;2023-11-19T04:26:44;11.10;99.90
35127;DHT22;21300;52.006;5.798;2023-11-19T04:29:14;11.00;99.90
35127;DHT22;21300;52.006;5.798;2023-11-19T04:31:40;11.00;99.90
35127;DHT22;21300;52.006;5.798;2023-11-19T04:34:06;10.90;99.90
35127;DHT22;21300;52.006;5.798;2023-11-19T04:36:33;10.90;99.90
35127;DHT22;21300;52.006;5.798;2023-11-19T04:38:59;10.90;99.90
35127;DHT22;21300;52.006;5.798;2023-11-19T04:41:25;10.90;99.90
35127;DHT22;21300;52.006;5.798;2023-11-19T04:43:53;10.90;99.90
35127;DHT22;21300;52.006;5.798;2023-11-19T04:46:19;10.80;99.90
35127;DHT22;21300;52.006;5.798;2023-11-19T04:48:45;10.80;99.90
35127;DHT22;21300;52.006;5.798;2023-11-19T04:51:10;10.80;99.90
35127;DHT22;21300;52.006;5.798;2023-11-19T04:53:36;10.80;99.90
35127;DHT22;21300;52.006;5.798;2023-11-19T04:56:08;10.70;99.90
35127;DHT22;21300;52.006;5.798;2023-11-19T04:58:34;10.70;99.90
35127;DHT22;21300;52.006;5.798;2023-11-19T05:01:01;10.70;99.90
35127;DHT22;21300;52.006;5.798;2023-11-19T05:03:27;10.70;99.90
35127;DHT22;21300;52.006;5.798;2023-11-19T05:05:52;10.70;99.90
35127;DHT22;21300;52.006;5.798;2023-11-19T05:08:19;10.70;99.90
35127;DHT22;21300;52.006;5.798;2023-11-19T05:10:44;10.60;99.90
35127;DHT22;21300;52.006;5.798;2023-11-19T05:13:10;10.60;99.90
35127;DHT22;21300;52.006;5.798;2023-11-19T05:15:35;10.60;99.90
35127;DHT22;21300;52.006;5.798;2023-11-19T05:18:01;10.60;99.90
35127;DHT22;21300;52.006;5.798;2023-11-19T05:20:27;10.70;99.90
35127;DHT22;21300;52.006;5.798;2023-11-19T05:22:52;10.70;99.90
35127;DHT22;21300;52.006;5.798;2023-11-19T05:25:18;10.70;99.90
35127;DHT22;21300;52.006;5.798;2023-11-19T05:27:48;10.70;99.90
35127;DHT22;21300;52.006;5.798;2023-11-19T05:30:13;10.70;99.90
35127;DHT22;21300;52.006;5.798;2023-11-19T05:32:39;10.70;99.90
35127;DHT22;21300;52.006;5.798;2023-11-19T05:35:05;10.70;99.90
35127;DHT22;21300;52.006;5.798;2023-11-19T05:37:30;10.80;99.90
35127;DHT22;21300;52.006;5.798;2023-11-19T05:39:56;10.80;99.90
35127;DHT22;21300;52.006;5.798;2023-11-19T05:42:22;10.70;99.90
35127;DHT22;21300;52.006;5.798;2023-11-19T05:44:47;10.80;99.90
35127;DHT22;21300;52.006;5.798;2023-11-19T05:47:13;10.70;99.90
35127;DHT22;21300;52.006;5.798;2023-11-19T05:49:38;10.70;99.90
35127;DHT22;21300;52.006;5.798;2023-11-19T05:52:04;10.70;99.90
35127;DHT22;21300;52.006;5.798;2023-11-19T05:54:33;10.70;99.90
35127;DHT22;21300;52.006;5.798;2023-11-19T05:57:04;10.70;99.90
35127;DHT22;21300;52.006;5.798;2023-11-19T05:59:29;10.70;99.90
35127;DHT22;21300;52.006;5.798;2023-11-19T06:01:57;10.70;99.90
35127;DHT22;21300;52.006;5.798;2023-11-19T06:04:23;10.80;99.90
35127;DHT22;21300;52.006;5.798;2023-11-19T06:06:48;10.80;99.90
35127;DHT22;21300;52.006;5.798;2023-11-19T06:09:14;10.80;99.90
35127;DHT22;21300;52.006;5.798;2023-11-19T06:11:39;10.80;99.90
35127;DHT22;21300;52.006;5.798;2023-11-19T06:14:06;10.80;99.90
35127;DHT22;21300;52.006;5.798;2023-11-19T06:16:32;10.80;99.90
35127;DHT22;21300;52.006;5.798;2023-11-19T06:18:58;10.80;99.90
35127;DHT22;21300;52.006;5.798;2023-11-19T06:21:24;10.80;99.90
35127;DHT22;21300;52.006;5.798;2023-11-19T06:23:50;10.70;99.90
35127;DHT22;21300;52.006;5.798;2023-11-19T06:26:17;10.70;99.90
35127;DHT22;21300;52.006;5.798;2023-11-19T06:28:43;10.70;99.90
35127;DHT22;21300;52.006;5.798;2023-11-19T06:31:10;10.70;99.90
35127;DHT22;21300;52.006;5.798;2023-11-19T06:33:35;10.70;99.90
35127;DHT22;21300;52.006;5.798;2023-11-19T06:36:01;10.70;99.90
35127;DHT22;21300;52.006;5.798;2023-11-19T06:38:27;10.70;99.90
35127;DHT22;21300;52.006;5.798;2023-11-19T06:40:52;10.60;99.90
35127;DHT22;21300;52.006;5.798;2023-11-19T06:43:18;10.60;99.90
35127;DHT22;21300;52.006;5.798;2023-11-19T06:45:43;10.70;99.90
35127;DHT22;21300;52.006;5.798;2023-11-19T06:48:09;10.60;99.90
35127;DHT22;21300;52.006;5.798;2023-11-19T06:50:35;10.60;99.90
35127;DHT22;21300;52.006;5.798;2023-11-19T06:53:01;10.60;99.90
35127;DHT22;21300;52.006;5.798;2023-11-19T06:55:27;10.60;99.90
35127;DHT22;21300;52.006;5.798;2023-11-19T06:57:53;10.60;99.90
35127;DHT22;21300;52.006;5.798;2023-11-19T07:00:18;10.60;99.90
35127;DHT22;21300;52.006;5.798;2023-11-19T07:02:44;10.60;99.90
35127;DHT22;21300;52.006;5.798;2023-11-19T07:05:10;10.60;99.90
35127;DHT22;21300;52.006;5.798;2023-11-19T07:07:37;10.60;99.90
35127;DHT22;21300;52.006;5.798;2023-11-19T07:10:03;10.60;99.90
35127;DHT22;21300;52.006;5.798;2023-11-19T07:12:30;10.60;99.90
35127;DHT22;21300;52.006;5.798;2023-11-19T07:14:55;10.50;99.90
35127;DHT22;21300;52.006;5.798;2023-11-19T07:17:21;10.60;99.90
35127;DHT22;21300;52.006;5.798;2023-11-19T07:19:50;10.60;99.90
35127;DHT22;21300;52.006;5.798;2023-11-19T07:22:16;10.60;99.90
35127;DHT22;21300;52.006;5.798;2023-11-19T07:24:41;10.60;99.90
35127;DHT22;21300;52.006;5.798;2023-11-19T07:27:08;10.60;99.90
35127;DHT22;21300;52.006;5.798;2023-11-19T07:29:37;10.60;99.90
35127;DHT22;21300;52.006;5.798;2023-11-19T07:32:03;10.50;99.90
35127;DHT22;21300;52.006;5.798;2023-11-19T07:34:29;10.50;99.90
35127;DHT22;21300;52.006;5.798;2023-11-19T07:36:55;10.50;99.90
35127;DHT22;21300;52.006;5.798;2023-11-19T07:39:24;10.50;99.90
35127;DHT22;21300;52.006;5.798;2023-11-19T07:41:50;10.50;99.90
35127;DHT22;21300;52.006;5.798;2023-11-19T07:44:16;10.60;99.90
35127;DHT22;21300;52.006;5.798;2023-11-19T07:46:41;10.60;99.90
35127;DHT22;21300;52.006;5.798;2023-11-19T07:49:10;10.60;99.90
35127;DHT22;21300;52.006;5.798;2023-11-19T07:51:36;10.60;99.90
35127;DHT22;21300;52.006;5.798;2023-11-19T07:54:02;10.70;99.90
35127;DHT22;21300;52.006;5.798;2023-11-19T07:56:27;10.70;99.90
35127;DHT22;21300;52.006;5.798;2023-11-19T07:58:53;10.70;99.90
35127;DHT22;21300;52.006;5.798;2023-11-19T08:01:18;10.80;99.90
35127;DHT22;21300;52.006;5.798;2023-11-19T08:03:44;10.90;99.90
35127;DHT22;21300;52.006;5.798;2023-11-19T08:06:10;10.90;99.90
35127;DHT22;21300;52.006;5.798;2023-11-19T08:08:36;10.90;99.90
35127;DHT22;21300;52.006;5.798;2023-11-19T08:11:03;11.00;99.90
35127;DHT22;21300;52.006;5.798;2023-11-19T08:13:30;11.00;99.90
35127;DHT22;21300;52.006;5.798;2023-11-19T08:15:57;11.00;99.90
35127;DHT22;21300;52.006;5.798;2023-11-19T08:18:24;11.00;99.90
35127;DHT22;21300;52.006;5.798;2023-11-19T08:20:49;11.00;99.90
35127;DHT22;21300;52.006;5.798;2023-11-19T08:23:19;11.10;99.90
35127;DHT22;21300;52.006;5.798;2023-11-19T08:25:46;11.10;99.90
35127;DHT22;21300;52.006;5.798;2023-11-19T08:28:15;11.10;99.90
35127;DHT22;21300;52.006;5.798;2023-11-19T08:30:41;11.00;99.90
35127;DHT22;21300;52.006;5.798;2023-11-19T08:33:06;11.00;99.90
35127;DHT22;21300;52.006;5.798;2023-11-19T08:35:32;11.00;99.90
35127;DHT22;21300;52.006;5.798;2023-11-19T08:37:58;11.10;99.90
35127;DHT22;21300;52.006;5.798;2023-11-19T08:40:24;11.10;99.90
35127;DHT22;21300;52.006;5.798;2023-11-19T08:42:51;11.10;99.90
35127;DHT22;21300;52.006;5.798;2023-11-19T08:45:17;11.10;99.90
35127;DHT22;21300;52.006;5.798;2023-11-19T08:47:43;11.10;99.90
35127;DHT22;21300;52.006;5.798;2023-11-19T08:50:11;11.10;99.90
35127;DHT22;21300;52.006;5.798;2023-11-19T08:52:36;11.20;99.90
35127;DHT22;21300;52.006;5.798;2023-11-19T08:55:02;11.10;99.90
35127;DHT22;21300;52.006;5.798;2023-11-19T08:57:28;11.10;99.90
35127;DHT22;21300;52.006;5.798;2023-11-19T08:59:54;11.20;99.90
35127;DHT22;21300;52.006;5.798;2023-11-19T09:02:19;11.20;99.90
35127;DHT22;21300;52.006;5.798;2023-11-19T09:04:45;11.20;99.90
35127;DHT22;21300;52.006;5.798;2023-11-19T09:07:11;11.20;99.90
35127;DHT22;21300;52.006;5.798;2023-11-19T09:09:36;11.30;99.90
35127;DHT22;21300;52.006;5.798;2023-11-19T09:12:03;11.30;99.90
35127;DHT22;21300;52.006;5.798;2023-11-19T09:14:31;11.30;99.90
35127;DHT22;21300;52.006;5.798;2023-11-19T09:16:57;11.30;99.90
35127;DHT22;21300;52.006;5.798;2023-11-19T09:19:23;11.30;99.90
35127;DHT22;21300;52.006;5.798;2023-11-19T09:21:49;11.40;99.90
35127;DHT22;21300;52.006;5.798;2023-11-19T09:24:15;11.40;99.90
35127;DHT22;21300;52.006;5.798;2023-11-19T09:26:40;11.40;99.90
35127;DHT22;21300;52.006;5.798;2023-11-19T09:29:10;11.40;99.90
35127;DHT22;21300;52.006;5.798;2023-11-19T09:31:38;11.40;99.90
35127;DHT22;21300;52.006;5.798;2023-11-19T09:34:04;11.40;99.90
35127;DHT22;21300;52.006;5.798;2023-11-19T09:36:29;11.50;99.90
35127;DHT22;21300;52.006;5.798;2023-11-19T09:38:55;11.50;99.90
35127;DHT22;21300;52.006;5.798;2023-11-19T09:41:21;11.60;99.90
35127;DHT22;21300;52.006;5.798;2023-11-19T09:43:47;11.60;99.90
35127;DHT22;21300;52.006;5.798;2023-11-19T09:46:16;11.60;99.90
35127;DHT22;21300;52.006;5.798;2023-11-19T09:48:42;11.60;99.90
35127;DHT22;21300;52.006;5.798;2023-11-19T09:51:09;11.60;99.90
35127;DHT22;21300;52.006;5.798;2023-11-19T09:53:36;11.60;99.90
35127;DHT22;21300;52.006;5.798;2023-11-19T09:56:03;11.60;99.90
35127;DHT22;21300;52.006;5.798;2023-11-19T09:58:30;11.70;99.90
35127;DHT22;21300;52.006;5.798;2023-11-19T10:00:56;11.70;99.90
35127;DHT22;21300;52.006;5.798;2023-11-19T10:03:25;11.70;99.90
35127;DHT22;21300;52.006;5.798;2023-11-19T10:05:53;11.70;99.90
35127;DHT22;21300;52.006;5.798;2023-11-19T10:08:23;11.80;99.90
35127;DHT22;21300;52.006;5.798;2023-11-19T10:10:49;11.70;99.90
35127;DHT22;21300;52.006;5.798;2023-11-19T10:13:17;11.80;99.90
35127;DHT22;21300;52.006;5.798;2023-11-19T10:15:43;11.80;99.90
35127;DHT22;21300;52.006;5.798;2023-11-19T10:18:09;11.80;99.90
35127;DHT22;21300;52.006;5.798;2023-11-19T10:20:41;11.90;99.90
35127;DHT22;21300;52.006;5.798;2023-11-19T10:23:07;11.90;99.90
35127;DHT22;21300;52.006;5.798;2023-11-19T10:25:33;11.90;99.90
35127;DHT22;21300;52.006;5.798;2023-11-19T10:27:59;11.90;99.90
35127;DHT22;21300;52.006;5.798;2023-11-19T10:30:30;11.90;99.90
35127;DHT22;21300;52.006;5.798;2023-11-19T10:33:09;11.90;99.90
35127;DHT22;21300;52.006;5.798;2023-11-19T10:35:52;11.80;99.90
35127;DHT22;21300;52.006;5.798;2023-11-19T10:38:27;11.80;99.90
35127;DHT22;21300;52.006;5.798;2023-11-19T10:40:53;11.90;99.90
35127;DHT22;21300;52.006;5.798;2023-11-19T10:43:23;12.00;99.90
35127;DHT22;21300;52.006;5.798;2023-11-19T10:45:49;12.00;99.90
35127;DHT22;21300;52.006;5.798;2023-11-19T10:48:15;12.00;99.90
35127;DHT22;21300;52.006;5.798;2023-11-19T10:50:42;12.10;99.90
35127;DHT22;21300;52.006;5.798;2023-11-19T10:53:09;12.10;99.90
35127;DHT22;21300;52.006;5.798;2023-11-19T10:55:38;12.10;99.90
35127;DHT22;21300;52.006;5.798;2023-11-19T10:58:08;12.20;99.90
35127;DHT22;21300;52.006;5.798;2023-11-19T11:00:56;12.20;99.90
35127;DHT22;21300;52.006;5.798;2023-11-19T11:03:25;12.30;99.90
35127;DHT22;21300;52.006;5.798;2023-11-19T11:05:52;12.40;99.90
35127;DHT22;21300;52.006;5.798;2023-11-19T11:08:19;12.40;99.90
35127;DHT22;21300;52.006;5.798;2023-11-19T11:10:55;12.40;99.90
35127;DHT22;21300;52.006;5.798;2023-11-19T11:13:23;12.50;99.90
35127;DHT22;21300;52.006;5.798;2023-11-19T11:15:52;12.50;99.90
35127;DHT22;21300;52.006;5.798;2023-11-19T11:18:24;12.60;99.90
35127;DHT22;21300;52.006;5.798;2023-11-19T11:21:02;12.60;99.90
35127;DHT22;21300;52.006;5.798;2023-11-19T11:24:03;12.60;99.90
35127;DHT22;21300;52.006;5.798;2023-11-19T11:38:03;12.60;99.90
35127;DHT22;21300;52.006;5.798;2023-11-19T11:40:29;12.50;99.90
35127;DHT22;21300;52.006;5.798;2023-11-19T11:42:57;12.60;99.90
35127;DHT22;21300;52.006;5.798;2023-11-19T11:45:39;12.60;99.90
35127;DHT22;21300;52.006;5.798;2023-11-19T11:48:17;12.50;99.90
35127;DHT22;21300;52.006;5.798;2023-11-19T11:50:53;12.50;99.90
35127;DHT22;21300;52.006;5.798;2023-11-19T11:53:23;12.50;99.90
35127;DHT22;21300;52.006;5.798;2023-11-19T11:55:56;12.60;99.90
35127;DHT22;21300;52.006;5.798;2023-11-19T11:58:29;12.70;99.90
35127;DHT22;21300;52.006;5.798;2023-11-19T12:00:59;12.80;99.90
35127;DHT22;21300;52.006;5.798;2023-11-19T12:03:28;12.90;99.90
35127;DHT22;21300;52.006;5.798;2023-11-19T12:05:55;12.90;99.90
35127;DHT22;21300;52.006;5.798;2023-11-19T12:08:26;13.00;99.90
35127;DHT22;21300;52.006;5.798;2023-11-19T12:10:54;13.00;99.90
35127;DHT22;21300;52.006;5.798;2023-11-19T12:13:21;12.90;99.90
35127;DHT22;21300;52.006;5.798;2023-11-19T12:16:09;12.90;99.90
35127;DHT22;21300;52.006;5.798;2023-11-19T12:18:36;12.80;99.90
35127;DHT22;21300;52.006;5.798;2023-11-19T12:21:03;12.70;99.90
35127;DHT22;21300;52.006;5.798;2023-11-19T12:23:31;12.70;99.90
35127;DHT22;21300;52.006;5.798;2023-11-19T12:26:00;12.80;99.90
35127;DHT22;21300;52.006;5.798;2023-11-19T12:28:25;12.90;99.90
35127;DHT22;21300;52.006;5.798;2023-11-19T12:30:54;12.90;99.90
35127;DHT22;21300;52.006;5.798;2023-11-19T12:33:32;12.90;99.90
35127;DHT22;21300;52.006;5.798;2023-11-19T12:36:00;12.90;99.90
35127;DHT22;21300;52.006;5.798;2023-11-19T12:38:30;12.80;99.90
35127;DHT22;21300;52.006;5.798;2023-11-19T12:41:06;12.80;99.90
35127;DHT22;21300;52.006;5.798;2023-11-19T12:43:32;12.70;99.90
35127;DHT22;21300;52.006;5.798;2023-11-19T12:46:00;12.70;99.90
35127;DHT22;21300;52.006;5.798;2023-11-19T12:48:25;12.70;99.90
35127;DHT22;21300;52.006;5.798;2023-11-19T12:50:58;12.70;99.90
35127;DHT22;21300;52.006;5.798;2023-11-19T12:53:25;12.70;99.90
35127;DHT22;21300;52.006;5.798;2023-11-19T12:55:54;12.70;99.90
35127;DHT22;21300;52.006;5.798;2023-11-19T12:58:34;12.70;99.90
35127;DHT22;21300;52.006;5.798;2023-11-19T13:01:04;12.70;99.90
35127;DHT22;21300;52.006;5.798;2023-11-19T13:03:34;12.70;99.90
35127;DHT22;21300;52.006;5.798;2023-11-19T13:08:36;12.70;99.90
35127;DHT22;21300;52.006;5.798;2023-11-19T13:11:03;12.70;99.90
35127;DHT22;21300;52.006;5.798;2023-11-19T13:13:29;12.70;99.90
35127;DHT22;21300;52.006;5.798;2023-11-19T13:16:02;12.70;99.90
35127;DHT22;21300;52.006;5.798;2023-11-19T13:18:29;12.70;99.90
35127;DHT22;21300;52.006;5.798;2023-11-19T13:20:55;12.70;99.90
35127;DHT22;21300;52.006;5.798;2023-11-19T13:23:22;12.70;99.90
35127;DHT22;21300;52.006;5.798;2023-11-19T13:25:49;12.60;99.90
35127;DHT22;21300;52.006;5.798;2023-11-19T13:28:20;12.70;99.90
35127;DHT22;21300;52.006;5.798;2023-11-19T13:30:45;12.60;99.90
35127;DHT22;21300;52.006;5.798;2023-11-19T13:33:11;12.60;99.90
35127;DHT22;21300;52.006;5.798;2023-11-19T13:35:38;12.60;99.90
35127;DHT22;21300;52.006;5.798;2023-11-19T13:38:06;12.60;99.90
35127;DHT22;21300;52.006;5.798;2023-11-19T13:40:32;12.60;99.90
35127;DHT22;21300;52.006;5.798;2023-11-19T13:42:57;12.60;99.90
35127;DHT22;21300;52.006;5.798;2023-11-19T13:45:23;12.60;99.90
35127;DHT22;21300;52.006;5.798;2023-11-19T13:47:49;12.60;99.90
35127;DHT22;21300;52.006;5.798;2023-11-19T13:50:15;12.60;99.90
35127;DHT22;21300;52.006;5.798;2023-11-19T13:52:43;12.60;99.90
35127;DHT22;21300;52.006;5.798;2023-11-19T13:55:10;12.60;99.90
35127;DHT22;21300;52.006;5.798;2023-11-19T13:57:37;12.60;99.90
35127;DHT22;21300;52.006;5.798;2023-11-19T14:00:04;12.50;99.90
35127;DHT22;21300;52.006;5.798;2023-11-19T14:02:32;12.50;99.90
35127;DHT22;21300;52.006;5.798;2023-11-19T14:04:57;12.40;99.90
35127;DHT22;21300;52.006;5.798;2023-11-19T14:07:23;12.40;99.90
35127;DHT22;21300;52.006;5.798;2023-11-19T14:09:49;12.40;99.90
35127;DHT22;21300;52.006;5.798;2023-11-19T14:12:15;12.40;99.90
35127;DHT22;21300;52.006;5.798;2023-11-19T14:14:41;12.30;99.90
35127;DHT22;21300;52.006;5.798;2023-11-19T14:17:07;12.30;99.90
35127;DHT22;21300;52.006;5.798;2023-11-19T14:19:33;12.30;99.90
35127;DHT22;21300;52.006;5.798;2023-11-19T14:21:59;12.30;99.90
35127;DHT22;21300;52.006;5.798;2023-11-19T14:24:25;12.30;99.90
35127;DHT22;21300;52.006;5.798;2023-11-19T14:26:51;12.30;99.90
35127;DHT22;21300;52.006;5.798;2023-11-19T14:29:17;12.30;99.90
35127;DHT22;21300;52.006;5.798;2023-11-19T14:31:42;12.30;99.90
35127;DHT22;21300;52.006;5.798;2023-11-19T14:34:08;12.30;99.90
35127;DHT22;21300;52.006;5.798;2023-11-19T14:36:34;12.30;99.90
35127;DHT22;21300;52.006;5.798;2023-11-19T14:39:00;12.30;99.90
35127;DHT22;21300;52.006;5.798;2023-11-19T14:41:26;12.20;99.90
35127;DHT22;21300;52.006;5.798;2023-11-19T14:43:51;12.10;99.90
35127;DHT22;21300;52.006;5.798;2023-11-19T14:46:18;12.10;99.90
35127;DHT22;21300;52.006;5.798;2023-11-19T14:48:43;12.00;99.90
35127;DHT22;21300;52.006;5.798;2023-11-19T14:51:09;12.00;99.90
35127;DHT22;21300;52.006;5.798;2023-11-19T14:53:34;11.90;99.90
35127;DHT22;21300;52.006;5.798;2023-11-19T14:56:00;11.90;99.90
35127;DHT22;21300;52.006;5.798;2023-11-19T14:58:26;11.90;99.90
35127;DHT22;21300;52.006;5.798;2023-11-19T15:00:52;11.90;99.90
35127;DHT22;21300;52.006;5.798;2023-11-19T15:03:18;11.80;99.90
35127;DHT22;21300;52.006;5.798;2023-11-19T15:05:47;11.80;99.90
35127;DHT22;21300;52.006;5.798;2023-11-19T15:08:13;11.80;99.90
35127;DHT22;21300;52.006;5.798;2023-11-19T15:10:44;11.80;99.90
35127;DHT22;21300;52.006;5.798;2023-11-19T15:13:10;11.70;99.90
35127;DHT22;21300;52.006;5.798;2023-11-19T15:15:36;11.70;99.90
35127;DHT22;21300;52.006;5.798;2023-11-19T15:18:01;11.60;99.90
35127;DHT22;21300;52.006;5.798;2023-11-19T15:20:27;11.60;99.90
35127;DHT22;21300;52.006;5.798;2023-11-19T15:22:59;11.60;99.90
35127;DHT22;21300;52.006;5.798;2023-11-19T15:25:25;11.60;99.90
35127;DHT22;21300;52.006;5.798;2023-11-19T15:27:50;11.60;99.90
35127;DHT22;21300;52.006;5.798;2023-11-19T15:30:16;11.60;99.90
35127;DHT22;21300;52.006;5.798;2023-11-19T15:32:42;11.60;99.90
35127;DHT22;21300;52.006;5.798;2023-11-19T15:35:11;11.70;99.90
35127;DHT22;21300;52.006;5.798;2023-11-19T15:37:37;11.70;99.90
35127;DHT22;21300;52.006;5.798;2023-11-19T15:40:06;11.70;99.90
35127;DHT22;21300;52.006;5.798;2023-11-19T15:42:34;11.80;99.90
35127;DHT22;21300;52.006;5.798;2023-11-19T15:45:00;11.80;99.90
35127;DHT22;21300;52.006;5.798;2023-11-19T15:47:25;11.80;99.90